createdAt,value
2023-07-28T00:02:22.332Z,15.91
2023-07-28T00:04:49.558Z,15.97
2023-07-28T00:07:19.339Z,15.95
2023-07-28T00:09:46.633Z,16.00
2023-07-28T00:12:13.934Z,15.95
2023-07-28T00:14:41.188Z,15.98
2023-07-28T00:17:08.496Z,16.01
2023-07-28T00:19:35.854Z,16.06
2023-07-28T00:22:03.257Z,16.04
2023-07-28T00:24:31.886Z,16.10
2023-07-28T00:26:59.137Z,16.06
2023-07-28T00:29:26.389Z,16.09
2023-07-28T00:31:53.655Z,16.14
2023-07-28T00:34:21.690Z,16.21
2023-07-28T00:36:49.014Z,16.13
2023-07-28T00:39:16.300Z,16.10
2023-07-28T00:41:44.943Z,16.11
2023-07-28T00:44:12.258Z,16.23
2023-07-28T00:46:39.516Z,16.28
2023-07-28T00:49:06.852Z,16.18
2023-07-28T00:51:34.484Z,16.16
2023-07-28T00:54:02.567Z,16.15
2023-07-28T00:56:29.826Z,16.16
2023-07-28T00:58:58.629Z,16.15
2023-07-28T01:01:25.897Z,16.13
2023-07-28T01:03:53.383Z,16.14
2023-07-28T01:06:38.036Z,16.17
2023-07-28T01:09:10.700Z,16.17
2023-07-28T01:11:38.142Z,16.18
2023-07-28T01:14:06.801Z,16.26
2023-07-28T01:16:34.377Z,16.32
2023-07-28T01:19:01.858Z,16.26
2023-07-28T01:21:33.100Z,16.25
2023-07-28T01:24:06.741Z,16.23
2023-07-28T01:26:36.500Z,16.21
2023-07-28T01:29:05.783Z,16.26
2023-07-28T01:31:33.105Z,16.28
2023-07-28T01:34:00.440Z,16.29
2023-07-28T01:36:27.730Z,16.22
2023-07-28T01:38:55.081Z,16.28
2023-07-28T01:41:22.339Z,16.25
2023-07-28T01:43:51.108Z,16.28
2023-07-28T01:46:18.410Z,16.26
2023-07-28T01:48:45.739Z,16.28
2023-07-28T01:51:12.990Z,16.27
2023-07-28T01:53:40.271Z,16.31
2023-07-28T01:56:07.595Z,16.29
2023-07-28T01:58:34.841Z,16.29
2023-07-28T02:01:03.499Z,16.28
2023-07-28T02:03:30.703Z,16.27
2023-07-28T02:05:57.958Z,16.27
2023-07-28T02:08:25.225Z,16.29
2023-07-28T02:10:54.547Z,16.31
2023-07-28T02:13:21.783Z,16.32
2023-07-28T02:15:49.087Z,16.34
2023-07-28T02:18:17.716Z,16.33
2023-07-28T02:20:45.037Z,16.35
2023-07-28T02:23:12.319Z,16.39
2023-07-28T02:25:41.162Z,16.39
2023-07-28T02:28:09.552Z,16.39
2023-07-28T02:30:36.986Z,16.42
2023-07-28T02:33:04.419Z,16.39
2023-07-28T02:35:33.242Z,16.42
2023-07-28T02:38:00.578Z,16.40
2023-07-28T02:40:27.845Z,16.46
2023-07-28T02:42:55.099Z,16.41
2023-07-28T02:45:22.381Z,16.42
2023-07-28T02:47:49.630Z,16.39
2023-07-28T02:50:17.049Z,16.40
2023-07-28T02:52:45.748Z,16.44
2023-07-28T02:55:13.027Z,16.41
2023-07-28T02:57:40.260Z,16.44
2023-07-28T03:00:09.233Z,16.43
2023-07-28T03:02:36.514Z,16.42
2023-07-28T03:05:04.103Z,16.41
2023-07-28T03:07:31.399Z,16.41
2023-07-28T03:10:00.080Z,16.42
2023-07-28T03:12:27.290Z,16.42
2023-07-28T03:14:54.589Z,16.47
2023-07-28T03:17:22.222Z,16.48
2023-07-28T03:19:49.469Z,16.45
2023-07-28T03:22:16.761Z,16.44
2023-07-28T03:24:44.095Z,16.45
2023-07-28T03:27:12.744Z,16.44
2023-07-28T03:29:40.116Z,16.45
2023-07-28T03:32:07.536Z,16.46
2023-07-28T03:34:34.898Z,16.45
2023-07-28T03:37:02.308Z,16.47
2023-07-28T03:39:29.559Z,16.51
2023-07-28T03:41:56.914Z,16.49
2023-07-28T03:44:25.572Z,16.49
2023-07-28T03:46:52.925Z,16.48
2023-07-28T03:49:20.189Z,16.47
2023-07-28T03:51:47.489Z,16.48
2023-07-28T03:54:14.782Z,16.47
2023-07-28T03:56:42.178Z,16.51
2023-07-28T03:59:09.456Z,16.54
2023-07-28T04:01:38.160Z,16.54
2023-07-28T04:04:07.324Z,16.53
2023-07-28T04:06:43.244Z,16.58
2023-07-28T04:09:10.846Z,16.58
2023-07-28T04:11:38.600Z,16.62
2023-07-28T04:14:06.247Z,16.61
2023-07-28T04:16:34.101Z,16.63
2023-07-28T04:19:03.116Z,16.63
2023-07-28T04:21:30.444Z,16.64
2023-07-28T04:23:57.715Z,16.64
2023-07-28T04:26:26.117Z,16.62
2023-07-28T04:28:53.359Z,16.68
2023-07-28T04:31:20.630Z,16.67
2023-07-28T04:33:47.985Z,16.66
2023-07-28T04:36:16.660Z,16.67
2023-07-28T04:38:44.011Z,16.64
2023-07-28T04:41:11.233Z,16.64
2023-07-28T04:43:38.538Z,16.69
2023-07-28T04:46:05.795Z,16.68
2023-07-28T04:48:33.096Z,16.65
2023-07-28T04:51:00.381Z,16.68
2023-07-28T04:53:28.926Z,16.72
2023-07-28T04:55:56.160Z,16.71
2023-07-28T04:58:23.429Z,16.73
2023-07-28T05:00:50.775Z,16.70
2023-07-28T05:03:18.019Z,16.73
2023-07-28T05:05:45.488Z,16.74
2023-07-28T05:08:12.872Z,16.76
2023-07-28T05:10:42.301Z,16.72
2023-07-28T05:13:09.608Z,16.72
2023-07-28T05:15:36.835Z,16.77
2023-07-28T05:18:04.180Z,16.79
2023-07-28T05:20:31.549Z,16.84
2023-07-28T05:22:58.791Z,16.82
2023-07-28T05:25:26.037Z,16.89
2023-07-28T05:27:54.804Z,16.89
2023-07-28T05:30:25.026Z,16.94
2023-07-28T05:32:55.144Z,16.93
2023-07-28T05:35:22.401Z,16.96
2023-07-28T05:37:49.717Z,16.98
2023-07-28T05:40:17.084Z,16.94
2023-07-28T05:42:44.408Z,17.01
2023-07-28T05:45:13.502Z,16.99
2023-07-28T05:47:40.845Z,17.00
2023-07-28T05:50:08.748Z,17.06
2023-07-28T05:52:35.815Z,17.11
2023-07-28T05:55:04.694Z,17.15
2023-07-28T05:57:32.181Z,17.17
2023-07-28T05:59:59.441Z,17.12
2023-07-28T06:02:28.110Z,17.12
2023-07-28T06:04:55.489Z,17.16
2023-07-28T06:07:22.823Z,17.18
2023-07-28T06:09:50.240Z,17.18
2023-07-28T06:12:17.545Z,17.18
2023-07-28T06:14:44.845Z,17.20
2023-07-28T06:17:12.097Z,17.15
2023-07-28T06:19:40.758Z,17.23
2023-07-28T06:22:08.037Z,17.22
2023-07-28T06:24:35.340Z,17.22
2023-07-28T06:27:02.583Z,17.23
2023-07-28T06:29:29.844Z,17.21
2023-07-28T06:31:57.081Z,17.23
2023-07-28T06:34:24.291Z,17.26
2023-07-28T06:36:52.918Z,17.29
2023-07-28T06:39:20.516Z,17.33
2023-07-28T06:41:47.735Z,17.32
2023-07-28T06:44:14.984Z,17.36
2023-07-28T06:46:44.695Z,17.39
2023-07-28T06:49:13.221Z,17.55
2023-07-28T06:51:40.461Z,17.50
2023-07-28T06:54:09.135Z,17.55
2023-07-28T06:56:36.372Z,17.60
2023-07-28T06:59:14.162Z,17.72
2023-07-28T07:01:43.498Z,17.80
2023-07-28T07:04:10.690Z,17.79
2023-07-28T07:06:38.019Z,17.85
2023-07-28T07:09:05.295Z,17.90
2023-07-28T07:11:34.251Z,17.94
2023-07-28T07:14:01.849Z,18.09
2023-07-28T07:16:29.182Z,18.07
2023-07-28T07:18:56.447Z,18.07
2023-07-28T07:21:23.695Z,18.03
2023-07-28T07:23:51.027Z,17.94
2023-07-28T07:26:18.267Z,17.91
2023-07-28T07:28:46.885Z,17.92
2023-07-28T07:31:14.473Z,17.96
2023-07-28T07:33:42.421Z,17.95
2023-07-28T07:36:12.987Z,18.03
2023-07-28T07:38:40.318Z,18.08
2023-07-28T07:41:07.843Z,18.05
2023-07-28T07:43:35.079Z,18.01
2023-07-28T07:46:03.723Z,18.12
2023-07-28T07:48:30.988Z,18.08
2023-07-28T07:50:58.361Z,18.12
2023-07-28T07:53:25.667Z,18.11
2023-07-28T07:55:52.960Z,18.16
2023-07-28T07:58:20.211Z,18.12
2023-07-28T08:00:47.586Z,18.12
2023-07-28T08:03:16.352Z,18.14
2023-07-28T08:05:43.948Z,18.15
2023-07-28T08:08:11.451Z,18.21
2023-07-28T08:10:40.214Z,18.37
2023-07-28T08:13:07.510Z,18.56
2023-07-28T08:15:34.925Z,18.68
2023-07-28T08:18:02.249Z,18.88
2023-07-28T08:20:31.010Z,19.14
2023-07-28T08:22:58.359Z,19.25
2023-07-28T08:25:25.644Z,19.29
2023-07-28T08:27:53.082Z,19.20
2023-07-28T08:30:20.637Z,19.12
2023-07-28T08:32:48.180Z,19.26
2023-07-28T08:35:15.463Z,19.41
2023-07-28T08:37:44.103Z,19.56
2023-07-28T08:40:12.549Z,19.83
2023-07-28T08:42:40.838Z,20.16
2023-07-28T08:45:09.457Z,20.47
2023-07-28T08:47:37.681Z,20.65
2023-07-28T08:50:05.949Z,21.15
2023-07-28T08:52:33.292Z,21.15
2023-07-28T08:55:01.977Z,21.27
2023-07-28T08:57:29.245Z,21.11
2023-07-28T08:59:56.609Z,21.03
2023-07-28T09:02:24.197Z,20.93
2023-07-28T09:04:51.599Z,20.95
2023-07-28T09:07:20.111Z,20.92
2023-07-28T09:09:47.537Z,20.59
2023-07-28T09:12:16.233Z,20.11
2023-07-28T09:14:43.543Z,20.22
2023-07-28T09:17:12.289Z,20.63
2023-07-28T09:19:53.155Z,22.23
2023-07-28T09:22:21.161Z,22.91
2023-07-28T09:24:49.150Z,22.46
2023-07-28T09:27:26.231Z,21.87
2023-07-28T09:29:54.512Z,21.69
2023-07-28T09:32:28.676Z,21.05
2023-07-28T09:35:09.899Z,20.82
2023-07-28T09:37:39.145Z,20.70
2023-07-28T09:40:08.928Z,20.50
2023-07-28T09:42:37.604Z,20.17
2023-07-28T09:45:06.158Z,19.92
2023-07-28T09:47:35.289Z,19.67
2023-07-28T09:50:04.353Z,19.52
2023-07-28T09:52:35.583Z,19.36
2023-07-28T09:55:07.657Z,19.36
2023-07-28T09:57:40.205Z,19.62
2023-07-28T10:00:11.216Z,19.68
2023-07-28T10:02:38.788Z,19.73
2023-07-28T10:05:07.665Z,19.66
2023-07-28T10:07:36.749Z,19.72
2023-07-28T10:10:06.786Z,19.71
2023-07-28T10:12:43.015Z,19.97
2023-07-28T10:15:14.643Z,20.29
2023-07-28T10:17:45.457Z,20.67
2023-07-28T10:20:37.464Z,21.61
2023-07-28T10:23:05.230Z,21.96
2023-07-28T10:25:34.595Z,22.71
2023-07-28T10:28:04.120Z,23.35
2023-07-28T10:30:36.620Z,22.77
2023-07-28T10:33:04.087Z,22.70
2023-07-28T10:35:32.214Z,22.44
2023-07-28T10:37:59.454Z,22.99
2023-07-28T10:40:30.773Z,23.05
2023-07-28T10:42:59.112Z,22.84
2023-07-28T10:45:29.443Z,22.47
2023-07-28T10:47:58.299Z,22.30
2023-07-28T10:50:25.567Z,22.49
2023-07-28T10:52:52.877Z,22.92
2023-07-28T10:55:21.627Z,22.77
2023-07-28T10:57:50.545Z,22.13
2023-07-28T11:00:19.598Z,22.24
2023-07-28T11:02:50.180Z,22.53
2023-07-28T11:05:21.212Z,22.33
2023-07-28T11:07:49.147Z,22.46
2023-07-28T11:10:16.545Z,22.51
2023-07-28T11:12:45.065Z,22.61
2023-07-28T11:15:15.585Z,22.45
2023-07-28T11:17:46.443Z,22.18
2023-07-28T11:20:18.386Z,22.07
2023-07-28T11:22:46.547Z,22.16
2023-07-28T11:25:14.152Z,21.98
2023-07-28T11:27:41.281Z,21.88
2023-07-28T11:30:09.040Z,21.81
2023-07-28T11:32:36.879Z,21.79
2023-07-28T11:35:05.536Z,21.75
2023-07-28T11:37:35.782Z,21.63
2023-07-28T11:40:04.427Z,21.68
2023-07-28T11:42:32.276Z,21.96
2023-07-28T11:45:00.149Z,22.65
2023-07-28T11:47:27.391Z,22.81
2023-07-28T11:49:54.627Z,22.62
2023-07-28T11:52:23.632Z,22.71
2023-07-28T11:54:52.928Z,22.78
2023-07-28T11:57:20.294Z,22.84
2023-07-28T11:59:47.742Z,22.91
2023-07-28T12:07:17.290Z,21.92
2023-07-28T12:10:02.990Z,23.04
2023-07-28T12:13:31.969Z,23.98
2023-07-28T12:20:41.510Z,25.88
2023-07-28T12:25:41.367Z,24.95
2023-07-28T12:28:18.992Z,24.33
2023-07-28T12:30:47.313Z,23.92
2023-07-28T12:48:21.582Z,22.67
2023-07-28T12:50:49.469Z,22.11
2023-07-28T12:53:20.958Z,21.90
2023-07-28T13:03:22.882Z,21.33
2023-07-28T13:05:50.089Z,21.24
2023-07-28T13:08:17.397Z,20.95
2023-07-28T13:13:16.320Z,20.58
2023-07-28T13:15:43.694Z,20.80
2023-07-28T13:18:11.003Z,20.89
2023-07-28T13:20:38.306Z,21.00
2023-07-28T13:23:05.688Z,21.18
2023-07-28T13:25:33.124Z,21.20
2023-07-28T13:28:00.367Z,21.36
2023-07-28T13:30:30.201Z,21.21
2023-07-28T13:32:57.895Z,21.18
2023-07-28T13:35:25.535Z,20.98
2023-07-28T13:37:52.615Z,20.96
2023-07-28T13:40:20.104Z,20.89
2023-07-28T13:42:48.133Z,20.80
2023-07-28T13:45:15.631Z,20.87
2023-07-28T13:47:44.411Z,21.10
2023-07-28T13:50:11.732Z,21.25
2023-07-28T13:52:39.070Z,21.31
2023-07-28T13:57:37.262Z,20.93
2023-07-28T14:00:05.231Z,20.89
2023-07-28T14:02:32.690Z,20.88
2023-07-28T14:05:01.190Z,20.86
2023-07-28T14:07:28.462Z,20.99
2023-07-28T14:09:55.830Z,21.11
2023-07-28T14:12:23.147Z,21.51
2023-07-28T14:14:50.459Z,21.65
2023-07-28T14:17:17.995Z,21.64
2023-07-28T14:19:45.236Z,21.72
2023-07-28T14:22:13.908Z,21.60
2023-07-28T14:24:41.166Z,21.48
2023-07-28T14:27:08.464Z,21.59
2023-07-28T14:29:35.775Z,21.63
2023-07-28T14:32:03.103Z,21.53
2023-07-28T14:34:30.431Z,21.68
2023-07-28T14:36:57.771Z,21.85
2023-07-28T14:39:26.483Z,21.95
2023-07-28T14:41:53.792Z,22.51
2023-07-28T14:44:21.067Z,22.98
2023-07-28T14:46:48.373Z,23.26
2023-07-28T14:49:15.801Z,23.45
2023-07-28T14:51:43.045Z,23.41
2023-07-28T14:54:10.344Z,23.38
2023-07-28T14:56:38.943Z,23.23
2023-07-28T14:59:06.236Z,22.94
2023-07-28T15:01:33.750Z,22.46
2023-07-28T15:04:01.336Z,22.14
2023-07-28T15:06:28.684Z,22.07
2023-07-28T15:08:55.998Z,22.00
2023-07-28T15:11:23.300Z,22.02
2023-07-28T15:13:52.278Z,22.06
2023-07-28T15:16:19.845Z,22.33
2023-07-28T15:18:46.961Z,22.40
2023-07-28T15:21:14.153Z,22.49
2023-07-28T15:23:41.453Z,22.60
2023-07-28T15:26:08.822Z,22.52
2023-07-28T15:28:36.175Z,22.18
2023-07-28T15:31:04.899Z,22.04
2023-07-28T15:33:32.482Z,22.02
2023-07-28T15:35:59.588Z,22.12
2023-07-28T15:38:26.803Z,22.15
2023-07-28T15:40:54.297Z,21.94
2023-07-28T15:43:21.742Z,21.85
2023-07-28T15:45:49.073Z,21.72
2023-07-28T15:48:17.712Z,21.55
2023-07-28T15:50:44.969Z,21.43
2023-07-28T15:53:12.254Z,21.42
2023-07-28T15:55:39.496Z,21.36
2023-07-28T15:58:06.807Z,21.46
2023-07-28T16:00:34.111Z,21.37
2023-07-28T16:03:01.491Z,21.23
2023-07-28T16:05:30.181Z,21.19
2023-07-28T16:07:58.320Z,21.21
2023-07-28T16:10:25.703Z,21.03
2023-07-28T16:12:52.995Z,20.84
2023-07-28T16:15:20.276Z,20.72
2023-07-28T16:17:47.904Z,20.64
2023-07-28T16:20:16.152Z,20.60
2023-07-28T16:22:44.818Z,20.43
2023-07-28T16:25:12.073Z,20.33
2023-07-28T16:27:39.671Z,20.31
2023-07-28T16:30:07.223Z,20.26
2023-07-28T16:32:34.425Z,20.25
2023-07-28T16:35:01.711Z,20.26
2023-07-28T16:37:28.989Z,20.24
2023-07-28T16:39:57.674Z,20.20
2023-07-28T16:42:24.953Z,20.14
2023-07-28T16:44:52.236Z,20.13
2023-07-28T16:47:19.459Z,20.15
2023-07-28T16:49:46.819Z,20.26
2023-07-28T16:52:14.631Z,20.14
2023-07-28T16:54:41.953Z,19.98
2023-07-28T16:57:10.605Z,19.97
2023-07-28T16:59:37.843Z,19.87
2023-07-28T17:02:05.916Z,19.84
2023-07-28T17:04:33.154Z,19.80
2023-07-28T17:07:00.387Z,19.74
2023-07-28T17:09:27.782Z,19.73
2023-07-28T17:11:55.077Z,19.71
2023-07-28T17:14:23.719Z,19.75
2023-07-28T17:16:51.118Z,19.76
2023-07-28T17:19:18.566Z,19.81
2023-07-28T17:21:45.859Z,19.82
2023-07-28T17:24:13.144Z,19.85
2023-07-28T17:26:40.440Z,19.91
2023-07-28T17:29:07.745Z,19.96
2023-07-28T17:31:36.669Z,19.85
2023-07-28T17:34:04.194Z,19.82
2023-07-28T17:36:31.458Z,19.76
2023-07-28T17:38:58.732Z,19.71
2023-07-28T17:41:26.097Z,19.71
2023-07-28T17:43:53.357Z,19.65
2023-07-28T17:46:20.708Z,19.60
2023-07-28T17:48:49.377Z,19.57
2023-07-28T17:51:16.758Z,19.56
2023-07-28T17:53:44.056Z,19.57
2023-07-28T17:56:11.457Z,19.57
2023-07-28T17:58:38.722Z,19.48
2023-07-28T18:01:06.025Z,19.44
2023-07-28T18:03:33.366Z,19.42
2023-07-28T18:06:02.098Z,19.39
2023-07-28T18:08:29.503Z,19.40
2023-07-28T18:10:56.771Z,19.38
2023-07-28T18:13:24.037Z,19.37
2023-07-28T18:15:51.328Z,19.37
2023-07-28T18:18:18.719Z,19.44
2023-07-28T18:20:45.966Z,19.40
2023-07-28T18:23:14.627Z,19.39
2023-07-28T18:25:42.093Z,19.35
2023-07-28T18:28:09.384Z,19.35
2023-07-28T18:30:36.787Z,19.35
2023-07-28T18:33:04.260Z,19.31
2023-07-28T18:35:31.718Z,19.30
2023-07-28T18:37:58.995Z,19.26
2023-07-28T18:40:30.219Z,19.25
2023-07-28T18:42:57.816Z,19.25
2023-07-28T18:45:25.486Z,19.21
2023-07-28T18:47:52.619Z,19.20
2023-07-28T18:50:20.274Z,19.08
2023-07-28T18:52:47.348Z,18.99
2023-07-28T18:55:14.671Z,18.90
2023-07-28T18:57:43.368Z,18.80
2023-07-28T19:02:43.779Z,18.74
2023-07-28T19:05:11.185Z,18.62
2023-07-28T19:07:38.441Z,18.56
2023-07-28T19:10:07.085Z,18.51
2023-07-28T19:12:34.304Z,18.51
2023-07-28T19:15:03.112Z,18.52
2023-07-28T19:17:30.423Z,18.45
2023-07-28T19:19:57.803Z,18.41
2023-07-28T19:22:25.281Z,18.38
2023-07-28T19:24:52.518Z,18.30
2023-07-28T19:27:20.074Z,18.23
2023-07-28T19:29:47.403Z,18.16
2023-07-28T19:32:16.060Z,18.12
2023-07-28T19:34:43.324Z,18.14
2023-07-28T19:37:10.645Z,18.07
2023-07-28T19:39:39.771Z,17.98
2023-07-28T19:42:07.236Z,17.95
2023-07-28T19:44:41.627Z,17.96
2023-07-28T19:47:09.985Z,17.96
2023-07-28T19:49:38.761Z,17.94
2023-07-28T19:52:06.463Z,17.92
2023-07-28T19:54:33.821Z,17.86
2023-07-28T19:57:01.838Z,17.85
2023-07-28T19:59:29.093Z,17.81
2023-07-28T20:01:56.383Z,17.79
2023-07-28T20:04:23.653Z,17.75
2023-07-28T20:06:52.629Z,17.68
2023-07-28T20:09:20.025Z,17.62
2023-07-28T20:11:47.273Z,17.55
2023-07-28T20:14:14.547Z,17.50
2023-07-28T20:16:41.819Z,17.48
2023-07-28T20:19:09.088Z,17.50
2023-07-28T20:21:36.351Z,17.53
2023-07-28T20:24:05.285Z,17.50
2023-07-28T20:26:32.550Z,17.48
2023-07-28T20:28:59.818Z,17.47
2023-07-28T20:31:27.134Z,17.54
2023-07-28T20:33:54.446Z,17.49
2023-07-28T20:36:21.713Z,17.39
2023-07-28T20:38:48.981Z,17.38
2023-07-28T20:41:17.600Z,17.30
2023-07-28T20:43:46.087Z,17.26
2023-07-28T20:46:13.739Z,17.22
2023-07-28T20:48:40.865Z,17.11
2023-07-28T20:51:08.078Z,17.04
2023-07-28T20:53:35.403Z,17.09
2023-07-28T20:56:03.276Z,17.11
2023-07-28T20:58:32.000Z,17.18
2023-07-28T21:00:59.265Z,17.20
2023-07-28T21:03:26.645Z,17.28
2023-07-28T21:05:54.003Z,17.28
2023-07-28T21:08:21.330Z,17.26
2023-07-28T21:10:48.583Z,17.29
2023-07-28T21:13:15.851Z,17.37
2023-07-28T21:15:45.423Z,17.40
2023-07-28T21:18:12.750Z,17.40
2023-07-28T21:20:40.005Z,17.36
2023-07-28T21:23:07.366Z,17.37
2023-07-28T21:25:34.742Z,17.34
2023-07-28T21:28:02.008Z,17.36
2023-07-28T21:30:29.334Z,17.36
2023-07-28T21:33:01.808Z,17.39
2023-07-28T21:35:29.294Z,17.40
2023-07-28T21:37:56.665Z,17.41
2023-07-28T21:40:23.916Z,17.51
2023-07-28T21:42:51.298Z,17.62
2023-07-28T21:45:19.025Z,17.57
2023-07-28T21:47:46.250Z,17.59
2023-07-28T21:50:14.839Z,17.57
2023-07-28T21:52:43.734Z,17.59
2023-07-28T21:55:11.591Z,17.59
2023-07-28T21:57:39.112Z,17.53
2023-07-28T22:00:07.713Z,17.53
2023-07-28T22:02:35.169Z,17.50
2023-07-28T22:05:02.513Z,17.50
2023-07-28T22:07:31.204Z,17.58
2023-07-28T22:09:58.476Z,17.51
2023-07-28T22:12:25.802Z,17.49
2023-07-28T22:14:53.236Z,17.50
2023-07-28T22:17:20.521Z,17.47
2023-07-28T22:19:48.046Z,17.45
2023-07-28T22:22:15.402Z,17.41
2023-07-28T22:24:44.411Z,17.43
2023-07-28T22:27:11.796Z,17.42
2023-07-28T22:29:39.040Z,17.47
2023-07-28T22:32:08.134Z,17.46
2023-07-28T22:34:35.426Z,17.46
2023-07-28T22:37:02.713Z,17.48
2023-07-28T22:39:29.980Z,17.54
2023-07-28T22:41:58.623Z,17.50
2023-07-28T22:44:25.883Z,17.44
2023-07-28T22:46:53.125Z,17.48
2023-07-28T22:49:20.434Z,17.44
2023-07-28T22:51:47.688Z,17.48
2023-07-28T22:54:14.971Z,17.55
2023-07-28T22:56:42.279Z,17.50
2023-07-28T22:59:10.921Z,17.52
2023-07-28T23:01:38.249Z,17.46
2023-07-28T23:04:05.548Z,17.41
2023-07-28T23:06:32.855Z,17.40
2023-07-28T23:09:00.136Z,17.42
2023-07-28T23:11:27.408Z,17.40
2023-07-28T23:13:54.732Z,17.35
2023-07-28T23:16:23.515Z,17.31
2023-07-28T23:18:50.898Z,17.32
2023-07-28T23:21:18.167Z,17.35
2023-07-28T23:23:45.436Z,17.35
2023-07-28T23:26:12.823Z,17.32
2023-07-28T23:28:40.060Z,17.36
2023-07-28T23:31:17.641Z,17.28
2023-07-28T23:33:46.458Z,17.26
2023-07-28T23:36:14.153Z,17.25
2023-07-28T23:38:41.482Z,17.29
2023-07-28T23:41:08.783Z,17.19
2023-07-28T23:43:36.097Z,17.15
2023-07-28T23:46:03.537Z,17.11
2023-07-28T23:48:31.855Z,17.04
2023-07-28T23:51:00.793Z,16.92
2023-07-28T23:53:29.426Z,16.81
2023-07-28T23:55:56.832Z,16.76
2023-07-28T23:58:24.157Z,16.82
